Back to Top

Language: 

My Weather Underground Personal Weather Station Historical Data with Graphs...

Delerius Weather Station Historical Data
Daily Summary for March 7, 2018 Units:  Metric    English   Both
« Previous Day
Next Day »
Daily Weekly Monthly Yearly Custom
  High: Low: Average:
Temperature: 9.4 °C -0.1 °C 4 °C
Dew Point: 4.1 °C -0.9 °C 1.2 °C
Humidity: 96 % 55 % 83 %
Wind Speed: 17.7 km/h 0 km/h 4 km/h
Wind Gust: 30.6 km/h - -
Wind:- - WSW
Pressure: 994.1 hPa 989.7 hPa -
Precipitation: 0 mm    
Historical Graphs
 
 
Tabular Data for March 7, 2018
Time Temperature Dew Point Pressure Wind Wind Speed Wind Gust Humidity Rainfall Rate (Hourly) solar Conditions
00:00 1.6 °C 0.4 °C 990.1 hPa Calm     92 % 0 mm 0 W/m2
00:05 1.5 °C 0.3 °C 990.1 hPa Calm     92 % 0 mm 0 W/m2
00:11 1.4 °C 0.2 °C 990.1 hPa Calm     92 % 0 mm 0 W/m2
00:16 1.4 °C 0.2 °C 990.1 hPa Calm     92 % 0 mm 0 W/m2
00:21 1.4 °C 0.4 °C 990.1 hPa Calm     93 % 0 mm 0 W/m2
00:26 1.3 °C 0.3 °C 990.1 hPa Calm     93 % 0 mm 0 W/m2
00:31 1.3 °C 0.3 °C 990.1 hPa Calm     93 % 0 mm 0 W/m2
00:36 1.3 °C 0.3 °C 990.1 hPa Calm     93 % 0 mm 0 W/m2
00:41 1.2 °C 0.2 °C 990.1 hPa Calm     93 % 0 mm 0 W/m2
00:46 1.1 °C 0.1 °C 990.1 hPa Calm     93 % 0 mm 0 W/m2
00:51 0.9 °C -0.1 °C 990.1 hPa Calm     93 % 0 mm 0 W/m2
00:56 0.9 °C -0.1 °C 990.1 hPa Calm     93 % 0 mm 0 W/m2
01:01 0.8 °C -0.2 °C 990.1 hPa Calm     93 % 0 mm 0 W/m2
01:06 0.8 °C -0.2 °C 990.1 hPa NNW 3.2 km/h 6.4 km/h 93 % 0 mm 0 W/m2
01:11 0.9 °C 0.1 °C 990.1 hPa Calm   4.8 km/h 94 % 0 mm 0 W/m2
01:16 1 °C 0.2 °C 990.1 hPa Calm   3.2 km/h 94 % 0 mm 0 W/m2
01:21 0.8 °C -0.2 °C 990.1 hPa Calm   1.6 km/h 93 % 0 mm 0 W/m2
01:26 0.7 °C -0.3 °C 990.1 hPa NNW 1.6 km/h 4.8 km/h 93 % 0 mm 0 W/m2
01:31 0.5 °C -0.5 °C 990.1 hPa NNW 3.2 km/h 6.4 km/h 93 % 0 mm 0 W/m2
01:36 0.4 °C -0.4 °C 990.1 hPa Calm     94 % 0 mm 0 W/m2
01:37 0.5 °C -0.3 °C 990.1 hPa Calm     94 % 0 mm 0 W/m2
01:42 0.4 °C -0.4 °C 990.1 hPa Calm     94 % 0 mm 0 W/m2
01:47 0.4 °C -0.4 °C 990.1 hPa Calm     94 % 0 mm 0 W/m2
01:52 0.3 °C -0.6 °C 990.1 hPa Calm     94 % 0 mm 0 W/m2
01:57 0.3 °C -0.6 °C 990.1 hPa Calm     94 % 0 mm 0 W/m2
02:02 0.2 °C -0.7 °C 990.1 hPa Calm     94 % 0 mm 0 W/m2
02:07 0.1 °C -0.8 °C 990.1 hPa Calm     94 % 0 mm 0 W/m2
02:13 0 °C -0.8 °C 990.1 hPa Calm     94 % 0 mm 0 W/m2
02:18 -0.1 °C -0.9 °C 990.1 hPa Calm     94 % 0 mm 0 W/m2
02:23 -0.1 °C -0.9 °C 990.1 hPa Calm     94 % 0 mm 0 W/m2
02:28 -0.1 °C -0.9 °C 989.7 hPa Calm     94 % 0 mm 0 W/m2
02:33 0 °C -0.8 °C 989.7 hPa Calm     94 % 0 mm 0 W/m2
02:38 0.1 °C -0.6 °C 990.1 hPa NNW 1.6 km/h 4.8 km/h 95 % 0 mm 0 W/m2
02:43 0.1 °C -0.6 °C 990.1 hPa NNW 1.6 km/h 4.8 km/h 95 % 0 mm 0 W/m2
02:48 0.1 °C -0.6 °C 990.1 hPa Calm     95 % 0 mm 0 W/m2
02:53 0.2 °C -0.5 °C 990.1 hPa NNW 1.6 km/h 3.2 km/h 95 % 0 mm 0 W/m2
02:58 0.2 °C -0.5 °C 990.1 hPa Calm     95 % 0 mm 0 W/m2
03:03 0.3 °C -0.4 °C 990.1 hPa Calm     95 % 0 mm 0 W/m2
03:08 0.3 °C -0.4 °C 990.1 hPa Calm     95 % 0 mm 0 W/m2
03:13 0.4 °C -0.3 °C 990.1 hPa Calm     95 % 0 mm 0 W/m2
03:18 0.4 °C -0.3 °C 990.1 hPa Calm     95 % 0 mm 0 W/m2
03:23 0.4 °C -0.3 °C 990.1 hPa Calm     95 % 0 mm 0 W/m2
03:28 0.4 °C -0.3 °C 990.1 hPa Calm     95 % 0 mm 0 W/m2
03:33 0.4 °C -0.3 °C 990.1 hPa Calm     95 % 0 mm 0 W/m2
03:38 0.4 °C -0.3 °C 990.1 hPa Calm     95 % 0 mm 0 W/m2
03:43 0.4 °C -0.3 °C 990.1 hPa Calm     95 % 0 mm 0 W/m2
03:48 0.4 °C -0.3 °C 990.1 hPa Calm     95 % 0 mm 0 W/m2
03:53 0.5 °C -0.2 °C 990.1 hPa Calm     95 % 0 mm 0 W/m2
03:58 0.5 °C -0.2 °C 990.1 hPa Calm   3.2 km/h 95 % 0 mm 0 W/m2
04:03 0.5 °C -0.2 °C 990.1 hPa Calm     95 % 0 mm 0 W/m2
04:08 0.5 °C -0.2 °C 990.4 hPa Calm     95 % 0 mm 0 W/m2
04:13 0.6 °C -0.1 °C 990.4 hPa Calm     95 % 0 mm 0 W/m2
04:18 0.6 °C -0.1 °C 990.4 hPa Calm     95 % 0 mm 0 W/m2
04:23 0.7 °C 0 °C 990.4 hPa Calm     95 % 0 mm 0 W/m2
04:28 0.7 °C 0 °C 990.4 hPa Calm     95 % 0 mm 0 W/m2
04:33 0.7 °C 0 °C 990.4 hPa Calm     95 % 0 mm 0 W/m2
04:38 0.8 °C 0.1 °C 990.4 hPa Calm     95 % 0 mm 0 W/m2
04:43 0.8 °C 0.1 °C 990.4 hPa Calm     95 % 0 mm 0 W/m2
04:48 0.8 °C 0.1 °C 990.4 hPa Calm     95 % 0 mm 0 W/m2
04:53 0.9 °C 0.2 °C 990.4 hPa Calm     95 % 0 mm 0 W/m2
04:58 1 °C 0.4 °C 990.4 hPa Calm     96 % 0 mm 0 W/m2
05:03 1 °C 0.4 °C 990.4 hPa Calm     96 % 0 mm 0 W/m2
05:08 1 °C 0.4 °C 990.4 hPa Calm     96 % 0 mm 0 W/m2
05:13 1.1 °C 0.6 °C 990.4 hPa Calm     96 % 0 mm 0 W/m2
05:18 1.1 °C 0.4 °C 990.4 hPa Calm     95 % 0 mm 0 W/m2
05:23 1 °C 0.3 °C 990.4 hPa Calm     95 % 0 mm 0 W/m2
05:28 1.1 °C 0.4 °C 990.4 hPa Calm     95 % 0 mm 0 W/m2
05:33 1.1 °C 0.6 °C 990.4 hPa Calm     96 % 0 mm 0 W/m2
05:38 1.1 °C 0.4 °C 990.4 hPa SW 1.6 km/h 11.3 km/h 95 % 0 mm 0 W/m2
05:43 1.1 °C 0.4 °C 990.4 hPa Calm     95 % 0 mm 0 W/m2
05:48 1.1 °C 0.4 °C 990.4 hPa Calm     95 % 0 mm 0 W/m2
05:53 1.1 °C 0.4 °C 990.4 hPa Calm     95 % 0 mm 0 W/m2
05:58 1.1 °C 0.4 °C 990.4 hPa Calm     95 % 0 mm 0 W/m2
06:03 1.2 °C 0.6 °C 990.4 hPa Calm     96 % 0 mm 0 W/m2
06:08 1.2 °C 0.6 °C 990.4 hPa Calm     96 % 0 mm 0 W/m2
06:13 1.2 °C 0.6 °C 990.4 hPa Calm     96 % 0 mm 0 W/m2
06:18 1.3 °C 0.7 °C 990.4 hPa Calm     96 % 0 mm 0 W/m2
06:23 1.3 °C 0.7 °C 990.4 hPa Calm     96 % 0 mm 0 W/m2
06:28 1.3 °C 0.7 °C 990.7 hPa Calm     96 % 0 mm 0 W/m2
06:33 1.4 °C 0.8 °C 990.7 hPa SE 1.6 km/h 3.2 km/h 96 % 0 mm 0 W/m2
06:38 1.6 °C 1.1 °C 990.7 hPa Calm   3.2 km/h 96 % 0 mm 0 W/m2
06:43 1.7 °C 1.1 °C 990.7 hPa Calm     96 % 0 mm 0 W/m2
06:48 1.7 °C 1 °C 990.7 hPa Calm     95 % 0 mm 0 W/m2
06:53 1.9 °C 1.3 °C 990.7 hPa Calm     96 % 0 mm 5 W/m2
06:58 2 °C 1.4 °C 991.1 hPa Calm     96 % 0 mm 5 W/m2
07:03 2.1 °C 1.4 °C 990.7 hPa Calm     95 % 0 mm 7 W/m2
07:08 2.2 °C 1.5 °C 990.7 hPa Calm   3.2 km/h 95 % 0 mm 9 W/m2
07:13 2.3 °C 1.6 °C 990.7 hPa Calm     95 % 0 mm 11 W/m2
07:19 2.4 °C 1.7 °C 990.7 hPa SE 1.6 km/h 4.8 km/h 95 % 0 mm 16 W/m2
07:24 2.6 °C 1.9 °C 991.1 hPa SE 1.6 km/h 4.8 km/h 95 % 0 mm 18 W/m2
07:29 2.7 °C 2 °C 991.1 hPa Calm     95 % 0 mm 19 W/m2
07:34 2.7 °C 2 °C 991.1 hPa Calm     95 % 0 mm 26 W/m2
07:39 2.8 °C 1.9 °C 991.1 hPa Calm     94 % 0 mm 37 W/m2
07:44 2.9 °C 2.2 °C 991.1 hPa Calm   3.2 km/h 95 % 0 mm 47 W/m2
07:49 3 °C 2.1 °C 991.4 hPa Calm     94 % 0 mm 47 W/m2
07:54 3.1 °C 2.2 °C 991.4 hPa Calm     94 % 0 mm 58 W/m2
07:59 3.1 °C 2.2 °C 991.4 hPa Calm     94 % 0 mm 56 W/m2
08:04 3.2 °C 2.3 °C 991.4 hPa Calm     94 % 0 mm 62 W/m2
08:09 3.3 °C 2.4 °C 991.4 hPa Calm     94 % 0 mm 51 W/m2
08:14 3.4 °C 2.4 °C 991.4 hPa Calm   3.2 km/h 93 % 0 mm 53 W/m2
08:19 3.6 °C 2.6 °C 991.4 hPa Calm     93 % 0 mm 67 W/m2
08:24 3.6 °C 2.6 °C 991.8 hPa Calm     93 % 0 mm 79 W/m2
08:29 3.8 °C 2.8 °C 991.8 hPa Calm     93 % 0 mm 74 W/m2
08:34 3.9 °C 2.7 °C 991.8 hPa Calm     92 % 0 mm 76 W/m2
08:39 4 °C 2.8 °C 991.8 hPa Calm     92 % 0 mm 67 W/m2
08:44 4.1 °C 2.9 °C 991.8 hPa Calm   8 km/h 92 % 0 mm 91 W/m2
08:49 4.2 °C 3 °C 991.8 hPa Calm   1.6 km/h 92 % 0 mm 86 W/m2
08:54 4.3 °C 2.9 °C 991.8 hPa Calm     91 % 0 mm 79 W/m2
08:59 4.4 °C 3.1 °C 991.8 hPa Calm     91 % 0 mm 93 W/m2
09:04 4.5 °C 3.2 °C 991.8 hPa Calm     91 % 0 mm 91 W/m2
09:09 4.6 °C 3.3 °C 991.8 hPa Calm   3.2 km/h 91 % 0 mm 121 W/m2
09:14 4.7 °C 3.2 °C 991.8 hPa Calm     90 % 0 mm 135 W/m2
09:19 4.8 °C 3.3 °C 991.8 hPa Calm     90 % 0 mm 153 W/m2
09:24 5 °C 3.5 °C 992.1 hPa Calm     90 % 0 mm 155 W/m2
09:29 5.2 °C 3.6 °C 992.1 hPa Calm     89 % 0 mm 174 W/m2
09:34 5.3 °C 3.5 °C 992.1 hPa Calm     88 % 0 mm 174 W/m2
09:39 5.5 °C 3.7 °C 992.1 hPa Calm     88 % 0 mm 195 W/m2
09:44 5.7 °C 3.7 °C 992.1 hPa Calm   1.6 km/h 87 % 0 mm 218 W/m2
09:49 6 °C 4 °C 992.1 hPa WSW 4.8 km/h 9.7 km/h 87 % 0 mm 241 W/m2
09:54 6.2 °C 3.9 °C 992.1 hPa WSW 9.7 km/h 16.1 km/h 85 % 0 mm 265 W/m2
09:59 6.5 °C 4 °C 992.1 hPa West 9.7 km/h 16.1 km/h 84 % 0 mm 250 W/m2
10:04 6.7 °C 4 °C 992.1 hPa WSW 8 km/h 14.5 km/h 83 % 0 mm 229 W/m2
10:09 6.9 °C 4.1 °C 992.1 hPa West 9.7 km/h 14.5 km/h 82 % 0 mm 257 W/m2
10:14 7 °C 3.9 °C 992.1 hPa WSW 12.9 km/h 16.1 km/h 81 % 0 mm 230 W/m2
10:19 7.1 °C 3.9 °C 992.1 hPa WSW 8 km/h 14.5 km/h 80 % 0 mm 253 W/m2
10:24 7.1 °C 3.9 °C 992.1 hPa WSW 9.7 km/h 14.5 km/h 80 % 0 mm 243 W/m2
10:29 7.2 °C 3.8 °C 992.1 hPa West 14.5 km/h 20.9 km/h 79 % 0 mm 236 W/m2
10:34 7.2 °C 3.4 °C 992.4 hPa WSW 14.5 km/h 20.9 km/h 77 % 0 mm 237 W/m2
10:40 7.2 °C 3.6 °C 992.4 hPa WSW 12.9 km/h 19.3 km/h 78 % 0 mm 302 W/m2
10:45 7.3 °C 3.7 °C 992.4 hPa WSW 11.3 km/h 17.7 km/h 78 % 0 mm 220 W/m2
10:50 7.3 °C 3.6 °C 992.4 hPa WSW 11.3 km/h 16.1 km/h 77 % 0 mm 186 W/m2
10:55 7.4 °C 3.6 °C 992.4 hPa West 12.9 km/h 17.7 km/h 77 % 0 mm 167 W/m2
11:00 7.4 °C 3.8 °C 992.4 hPa WSW 11.3 km/h 19.3 km/h 78 % 0 mm 137 W/m2
11:05 7.3 °C 3.6 °C 992.4 hPa WSW 14.5 km/h 22.5 km/h 77 % 0 mm 128 W/m2
11:10 7.2 °C 3.6 °C 992.4 hPa WSW 11.3 km/h 22.5 km/h 78 % 0 mm 146 W/m2
11:15 7.1 °C 3.7 °C 992.4 hPa West 9.7 km/h 17.7 km/h 79 % 0 mm 169 W/m2
11:20 7.1 °C 3.3 °C 992.4 hPa WSW 14.5 km/h 22.5 km/h 77 % 0 mm 178 W/m2
11:25 7.1 °C 3.3 °C 992.8 hPa WSW 12.9 km/h 20.9 km/h 77 % 0 mm 171 W/m2
11:30 7.2 °C 3.4 °C 992.8 hPa West 12.9 km/h 19.3 km/h 77 % 0 mm 160 W/m2
11:35 7.3 °C 3.3 °C 992.8 hPa West 16.1 km/h 22.5 km/h 76 % 0 mm 183 W/m2
11:40 7.3 °C 3.2 °C 992.8 hPa West 14.5 km/h 19.3 km/h 75 % 0 mm 239 W/m2
11:45 7.4 °C 3.3 °C 992.8 hPa West 12.9 km/h 17.7 km/h 75 % 0 mm 236 W/m2
11:50 7.5 °C 3.3 °C 992.8 hPa West 9.7 km/h 14.5 km/h 75 % 0 mm 248 W/m2
11:55 7.6 °C 3.4 °C 992.8 hPa West 12.9 km/h 19.3 km/h 75 % 0 mm 251 W/m2
12:00 7.8 °C 3.7 °C 992.8 hPa West 11.3 km/h 16.1 km/h 75 % 0 mm 301 W/m2
12:05 7.8 °C 3.4 °C 992.8 hPa SW 11.3 km/h 17.7 km/h 74 % 0 mm 371 W/m2
12:10 7.9 °C 3.6 °C 992.8 hPa West 11.3 km/h 16.1 km/h 74 % 0 mm 334 W/m2
12:15 8.1 °C 3.6 °C 992.8 hPa West 6.4 km/h 12.9 km/h 73 % 0 mm 267 W/m2
12:20 8.2 °C 3.4 °C 992.8 hPa West 9.7 km/h 16.1 km/h 72 % 0 mm 213 W/m2
12:25 8.2 °C 3.4 °C 992.8 hPa West 11.3 km/h 16.1 km/h 72 % 0 mm 202 W/m2
12:30 8.2 °C 3.4 °C 992.8 hPa West 9.7 km/h 14.5 km/h 72 % 0 mm 199 W/m2
12:35 8.2 °C 3.1 °C 992.8 hPa WSW 9.7 km/h 16.1 km/h 70 % 0 mm 195 W/m2
12:40 8.1 °C 2.8 °C 992.8 hPa WSW 11.3 km/h 17.7 km/h 69 % 0 mm 172 W/m2
12:45 8.1 °C 2.9 °C 992.8 hPa West 11.3 km/h 17.7 km/h 70 % 0 mm 125 W/m2
12:50 8 °C 2.7 °C 992.8 hPa WSW 11.3 km/h 17.7 km/h 69 % 0 mm 135 W/m2
12:55 8 °C 3.1 °C 992.8 hPa West 6.4 km/h 14.5 km/h 71 % 0 mm 169 W/m2
13:00 8 °C 3.1 °C 992.8 hPa West 9.7 km/h 12.9 km/h 71 % 0 mm 153 W/m2
13:06 8.1 °C 3.2 °C 992.8 hPa West 8 km/h 14.5 km/h 71 % 0 mm 156 W/m2
13:11 8.1 °C 2.9 °C 992.8 hPa West 14.5 km/h 22.5 km/h 70 % 0 mm 139 W/m2
13:16 8 °C 2.8 °C 992.8 hPa WSW 14.5 km/h 22.5 km/h 70 % 0 mm 144 W/m2
13:21 7.8 °C 2.4 °C 992.8 hPa WSW 12.9 km/h 19.3 km/h 69 % 0 mm 178 W/m2
13:26 7.8 °C 2.7 °C 992.8 hPa West 9.7 km/h 16.1 km/h 70 % 0 mm 174 W/m2
13:31 7.8 °C 2.7 °C 992.8 hPa West 9.7 km/h 16.1 km/h 70 % 0 mm 206 W/m2
13:36 7.8 °C 2.7 °C 992.8 hPa WSW 12.9 km/h 17.7 km/h 70 % 0 mm 230 W/m2
13:41 7.8 °C 2.4 °C 992.8 hPa WSW 11.3 km/h 16.1 km/h 69 % 0 mm 216 W/m2
13:46 7.9 °C 2.6 °C 992.8 hPa West 14.5 km/h 20.9 km/h 69 % 0 mm 218 W/m2
13:51 8 °C 2.2 °C 992.8 hPa West 8 km/h 14.5 km/h 67 % 0 mm 188 W/m2
13:56 8.1 °C 2.3 °C 992.8 hPa WSW 8 km/h 16.1 km/h 67 % 0 mm 204 W/m2
14:01 8.2 °C 2 °C 992.8 hPa WSW 11.3 km/h 19.3 km/h 65 % 0 mm 246 W/m2
14:06 8.2 °C 2 °C 992.8 hPa SW 11.3 km/h 14.5 km/h 65 % 0 mm 285 W/m2
14:11 8.3 °C 2.1 °C 992.8 hPa WSW 12.9 km/h 22.5 km/h 65 % 0 mm 274 W/m2
14:16 8.7 °C 2.5 °C 992.8 hPa WSW 9.7 km/h 19.3 km/h 65 % 0 mm 670 W/m2
14:21 9 °C 2.1 °C 992.8 hPa West 11.3 km/h 22.5 km/h 62 % 0 mm 139 W/m2
14:26 9 °C 2.1 °C 992.8 hPa SW 12.9 km/h 17.7 km/h 62 % 0 mm 200 W/m2
14:31 8.8 °C 2.3 °C 992.8 hPa WSW 16.1 km/h 24.1 km/h 64 % 0 mm 144 W/m2
14:36 8.5 °C 1.6 °C 992.8 hPa West 17.7 km/h 24.1 km/h 62 % 0 mm 113 W/m2
14:41 8.3 °C 1.4 °C 992.8 hPa WSW 12.9 km/h 19.3 km/h 62 % 0 mm 113 W/m2
14:46 8.1 °C 1 °C 992.8 hPa WSW 12.9 km/h 19.3 km/h 61 % 0 mm 334 W/m2
14:51 8.3 °C 1.4 °C 992.8 hPa West 12.9 km/h 19.3 km/h 62 % 0 mm 260 W/m2
14:56 8.6 °C 1.5 °C 992.8 hPa WSW 12.9 km/h 17.7 km/h 61 % 0 mm 218 W/m2
15:01 8.7 °C 1.6 °C 992.8 hPa West 11.3 km/h 16.1 km/h 61 % 0 mm 113 W/m2
15:06 8.6 °C 1.5 °C 992.8 hPa West 11.3 km/h 16.1 km/h 61 % 0 mm 98 W/m2
15:11 8.7 °C 1.8 °C 992.8 hPa WSW 6.4 km/h 12.9 km/h 62 % 0 mm 156 W/m2
15:16 9 °C 1.9 °C 992.8 hPa West 9.7 km/h 12.9 km/h 61 % 0 mm 436 W/m2
15:21 9.2 °C 2.1 °C 992.8 hPa West 6.4 km/h 12.9 km/h 61 % 0 mm 188 W/m2
15:26 9.3 °C 1.2 °C 992.8 hPa WSW 12.9 km/h 19.3 km/h 57 % 0 mm 457 W/m2
15:31 9.4 °C 1.1 °C 992.8 hPa SW 16.1 km/h 29 km/h 56 % 0 mm 427 W/m2
15:36 9.4 °C 1.3 °C 992.8 hPa SW 16.1 km/h 30.6 km/h 57 % 0 mm 397 W/m2
15:41 9.2 °C 0.6 °C 992.8 hPa SW 17.7 km/h 29 km/h 55 % 0 mm 100 W/m2
15:46 8.9 °C 0.6 °C 992.8 hPa SW 12.9 km/h 20.9 km/h 56 % 0 mm 142 W/m2
15:51 8.7 °C 0.4 °C 992.8 hPa West 12.9 km/h 17.7 km/h 56 % 0 mm 155 W/m2
15:56 8.7 °C 0.9 °C 992.8 hPa WSW 11.3 km/h 19.3 km/h 58 % 0 mm 141 W/m2
16:01 8.6 °C 1.3 °C 992.8 hPa SW 12.9 km/h 16.1 km/h 60 % 0 mm 84 W/m2
16:06 8.4 °C 1.3 °C 992.8 hPa WSW 9.7 km/h 17.7 km/h 61 % 0 mm 62 W/m2
16:11 8.2 °C 0.9 °C 992.8 hPa SW 11.3 km/h 16.1 km/h 60 % 0 mm 65 W/m2
16:16 8.1 °C 0.8 °C 992.8 hPa SW 9.7 km/h 17.7 km/h 60 % 0 mm 67 W/m2
16:21 8 °C 0.9 °C 992.8 hPa WSW 8 km/h 12.9 km/h 61 % 0 mm 65 W/m2
16:26 7.9 °C 1.1 °C 992.8 hPa West 4.8 km/h 11.3 km/h 62 % 0 mm 54 W/m2
16:31 7.9 °C 1.1 °C 992.8 hPa WSW 3.2 km/h 8 km/h 62 % 0 mm 47 W/m2
16:36 7.9 °C 1.1 °C 992.8 hPa WSW 8 km/h 14.5 km/h 62 % 0 mm 42 W/m2
16:41 7.9 °C 1.3 °C 992.8 hPa West 6.4 km/h 9.7 km/h 63 % 0 mm 102 W/m2
16:46 7.9 °C 1.3 °C 992.8 hPa WSW 9.7 km/h 16.1 km/h 63 % 0 mm 58 W/m2
16:51 8 °C 1.4 °C 992.8 hPa West 6.4 km/h 9.7 km/h 63 % 0 mm 65 W/m2
16:56 8.1 °C 1.5 °C 992.8 hPa SW 8 km/h 12.9 km/h 63 % 0 mm 81 W/m2
17:01 8.1 °C 1.5 °C 992.8 hPa SW 9.7 km/h 12.9 km/h 63 % 0 mm 60 W/m2
17:06 8.1 °C 1.5 °C 992.8 hPa SW 6.4 km/h 9.7 km/h 63 % 0 mm 37 W/m2
17:11 8 °C 1.4 °C 993.1 hPa SW 9.7 km/h 16.1 km/h 63 % 0 mm 23 W/m2
17:16 7.8 °C 1.4 °C 993.1 hPa WSW 12.9 km/h 19.3 km/h 64 % 0 mm 26 W/m2
17:21 7.6 °C 1.2 °C 993.1 hPa SW 8 km/h 12.9 km/h 64 % 0 mm 28 W/m2
17:26 7.4 °C 1.2 °C 993.1 hPa WSW 8 km/h 14.5 km/h 65 % 0 mm 23 W/m2
17:31 7.3 °C 1.4 °C 993.1 hPa West 6.4 km/h 9.7 km/h 66 % 0 mm 12 W/m2
17:36 7.2 °C 1.3 °C 993.1 hPa West 4.8 km/h 11.3 km/h 66 % 0 mm 11 W/m2
17:41 7.1 °C 1.4 °C 993.1 hPa WSW 9.7 km/h 14.5 km/h 67 % 0 mm 11 W/m2
17:47 6.9 °C 1.2 °C 993.1 hPa WSW 9.7 km/h 12.9 km/h 67 % 0 mm 7 W/m2
17:52 6.8 °C 1.3 °C 993.5 hPa WSW 6.4 km/h 11.3 km/h 68 % 0 mm 7 W/m2
17:55 6.7 °C 1.4 °C 993.5 hPa WNW 14.5 km/h 20.9 km/h 69 % 0 mm 5 W/m2
18:00 6.5 °C 1.6 °C 993.5 hPa WNW 12.9 km/h 16.1 km/h 71 % 0 mm 0 W/m2
18:05 6.2 °C 1.7 °C 993.5 hPa WNW 9.7 km/h 12.9 km/h 73 % 0 mm 0 W/m2
18:10 5.9 °C 1.6 °C 993.5 hPa WNW 8 km/h 12.9 km/h 74 % 0 mm 0 W/m2
18:15 5.8 °C 1.7 °C 993.5 hPa WNW 1.6 km/h 8 km/h 75 % 0 mm 0 W/m2
18:20 5.6 °C 1.7 °C 993.5 hPa Calm     76 % 0 mm 0 W/m2
18:25 5.4 °C 1.7 °C 993.5 hPa Calm     77 % 0 mm 0 W/m2
18:30 5.2 °C 1.7 °C 993.8 hPa Calm     78 % 0 mm 0 W/m2
18:36 5 °C 1.5 °C 993.8 hPa Calm   1.6 km/h 78 % 0 mm 0 W/m2
18:41 4.8 °C 1.4 °C 993.8 hPa Calm     79 % 0 mm 0 W/m2
18:46 4.7 °C 1.6 °C 993.8 hPa Calm   1.6 km/h 80 % 0 mm 0 W/m2
18:51 4.6 °C 1.4 °C 993.8 hPa Calm     80 % 0 mm 0 W/m2
18:56 4.4 °C 1.4 °C 993.8 hPa WNW 1.6 km/h 4.8 km/h 81 % 0 mm 0 W/m2
19:01 4.3 °C 1.5 °C 993.8 hPa WNW 1.6 km/h 4.8 km/h 82 % 0 mm 0 W/m2
19:06 4.2 °C 1.4 °C 993.8 hPa Calm     82 % 0 mm 0 W/m2
19:11 4.1 °C 1.4 °C 993.8 hPa Calm   3.2 km/h 83 % 0 mm 0 W/m2
19:16 3.9 °C 1.3 °C 993.8 hPa WNW 1.6 km/h 3.2 km/h 83 % 0 mm 0 W/m2
19:21 3.8 °C 1.2 °C 993.8 hPa WNW 1.6 km/h 3.2 km/h 83 % 0 mm 0 W/m2
19:26 3.7 °C 1.1 °C 993.8 hPa WNW 1.6 km/h 6.4 km/h 83 % 0 mm 0 W/m2
19:31 3.7 °C 1.1 °C 993.8 hPa WNW 1.6 km/h 3.2 km/h 83 % 0 mm 0 W/m2
19:36 3.7 °C 1.1 °C 993.8 hPa WNW 1.6 km/h 6.4 km/h 83 % 0 mm 0 W/m2
19:41 3.6 °C 1 °C 993.8 hPa Calm     83 % 0 mm 0 W/m2
19:46 3.5 °C 0.9 °C 993.8 hPa WNW 1.6 km/h 3.2 km/h 83 % 0 mm 0 W/m2
19:51 3.4 °C 0.8 °C 993.8 hPa Calm   3.2 km/h 83 % 0 mm 0 W/m2
19:56 3.3 °C 0.7 °C 993.8 hPa Calm     83 % 0 mm 0 W/m2
20:01 3.2 °C 0.6 °C 993.8 hPa Calm     83 % 0 mm 0 W/m2
20:06 3.1 °C 0.5 °C 993.8 hPa Calm     83 % 0 mm 0 W/m2
20:11 2.9 °C 0.3 °C 993.8 hPa Calm   1.6 km/h 83 % 0 mm 0 W/m2
20:16 2.7 °C 0.1 °C 993.8 hPa Calm     83 % 0 mm 0 W/m2
20:21 2.6 °C 0 °C 993.8 hPa Calm     83 % 0 mm 0 W/m2
20:26 2.4 °C -0.1 °C 993.8 hPa Calm     84 % 0 mm 0 W/m2
20:31 2.3 °C -0.1 °C 993.8 hPa Calm     84 % 0 mm 0 W/m2
20:36 2.2 °C -0.2 °C 994.1 hPa Calm     84 % 0 mm 0 W/m2
20:41 2.1 °C -0.2 °C 994.1 hPa Calm     85 % 0 mm 0 W/m2
20:47 1.9 °C -0.3 °C 994.1 hPa Calm     85 % 0 mm 0 W/m2
20:52 1.8 °C -0.3 °C 994.1 hPa Calm     86 % 0 mm 0 W/m2
20:57 1.8 °C -0.3 °C 994.1 hPa Calm     86 % 0 mm 0 W/m2
21:02 1.7 °C -0.4 °C 994.1 hPa Calm     86 % 0 mm 0 W/m2
21:07 1.7 °C -0.2 °C 994.1 hPa Calm   3.2 km/h 87 % 0 mm 0 W/m2
21:12 1.7 °C -0.2 °C 994.1 hPa Calm     87 % 0 mm 0 W/m2
21:17 1.6 °C -0.3 °C 994.1 hPa WNW 1.6 km/h 3.2 km/h 87 % 0 mm 0 W/m2
21:22 1.6 °C -0.3 °C 994.1 hPa Calm   3.2 km/h 87 % 0 mm 0 W/m2
21:27 1.6 °C -0.3 °C 994.1 hPa Calm     87 % 0 mm 0 W/m2
21:32 1.6 °C -0.3 °C 994.1 hPa Calm   4.8 km/h 87 % 0 mm 0 W/m2
21:37 1.5 °C -0.3 °C 994.1 hPa WNW 1.6 km/h 3.2 km/h 88 % 0 mm 0 W/m2
21:42 1.6 °C -0.2 °C 994.1 hPa Calm   3.2 km/h 88 % 0 mm 0 W/m2
21:47 1.7 °C -0.1 °C 994.1 hPa WSW 3.2 km/h 9.7 km/h 88 % 0 mm 0 W/m2
21:52 1.8 °C 0 °C 994.1 hPa SW 1.6 km/h 6.4 km/h 88 % 0 mm 0 W/m2
21:57 1.9 °C -0.1 °C 994.1 hPa SW 1.6 km/h 8 km/h 87 % 0 mm 0 W/m2
22:02 1.8 °C -0.3 °C 994.1 hPa Calm     86 % 0 mm 0 W/m2
22:07 1.8 °C -0.3 °C 994.1 hPa Calm   1.6 km/h 86 % 0 mm 0 W/m2
22:09 1.7 °C -0.4 °C 994.1 hPa Calm   1.6 km/h 86 % 0 mm 0 W/m2
22:14 1.7 °C -0.4 °C 994.1 hPa Calm     86 % 0 mm 0 W/m2
22:19 1.6 °C -0.5 °C 994.1 hPa Calm   3.2 km/h 86 % 0 mm 0 W/m2
22:24 1.5 °C -0.4 °C 994.1 hPa SW 1.6 km/h 3.2 km/h 87 % 0 mm 0 W/m2
22:29 1.5 °C -0.4 °C 993.8 hPa SW 1.6 km/h 3.2 km/h 87 % 0 mm 0 W/m2
22:34 1.6 °C -0.3 °C 993.8 hPa SW 1.6 km/h 4.8 km/h 87 % 0 mm 0 W/m2
22:39 1.5 °C -0.4 °C 993.8 hPa Calm     87 % 0 mm 0 W/m2
22:44 1.5 °C -0.4 °C 993.8 hPa SW 1.6 km/h 4.8 km/h 87 % 0 mm 0 W/m2
22:49 1.5 °C -0.3 °C 993.8 hPa Calm   4.8 km/h 88 % 0 mm 0 W/m2
22:54 1.6 °C -0.2 °C 993.8 hPa Calm     88 % 0 mm 0 W/m2
22:59 1.6 °C -0.2 °C 993.8 hPa Calm   3.2 km/h 88 % 0 mm 0 W/m2
23:04 1.5 °C -0.3 °C 993.8 hPa Calm     88 % 0 mm 0 W/m2
23:09 1.4 °C -0.4 °C 993.5 hPa SSE 1.6 km/h 6.4 km/h 88 % 0 mm 0 W/m2
23:14 1.4 °C -0.4 °C 993.5 hPa SW 1.6 km/h 8 km/h 88 % 0 mm 0 W/m2
23:19 1.4 °C -0.4 °C 993.5 hPa Calm     88 % 0 mm 0 W/m2
23:24 1.4 °C -0.4 °C 993.5 hPa Calm     88 % 0 mm 0 W/m2
23:29 1.3 °C -0.4 °C 993.5 hPa Calm     88 % 0 mm 0 W/m2
23:34 1.3 °C -0.4 °C 993.5 hPa Calm     88 % 0 mm 0 W/m2
23:39 1.2 °C -0.6 °C 993.5 hPa Calm     88 % 0 mm 0 W/m2
23:44 1.1 °C -0.5 °C 993.5 hPa Calm   1.6 km/h 89 % 0 mm 0 W/m2
23:49 1.2 °C -0.4 °C 993.5 hPa Calm   3.2 km/h 89 % 0 mm 0 W/m2
23:54 1.4 °C -0.1 °C 993.5 hPa SSW 1.6 km/h 6.4 km/h 90 % 0 mm 0 W/m2
23:59 1.6 °C 0.1 °C 993.5 hPa SSW 4.8 km/h 9.7 km/h 90 % 0 mm 0 W/m2
Delerius-Weather
Compliments of Weather Underground - 2.25 mb

Data updates at regular intervals.